Time;durP1;ratioP1;P1;durP2;ratioP2;P2;SDS_P1;SDS_P2;PMS_P1;PMS_P2;Temp;Humidity;BMP_temperature;BMP_pressure;BME280_temperature;BME280_humidity;BME280_pressure;Samples;Min_cycle;Max_cycle;Signal;HPM_P1;HPM_P2
2022/04/01 00:00:09;;;;;;;28.55;17.80;;;;;;;-0.37;100.00;96938.38;4193568;28;20033;-72
2022/04/01 00:02:09;;;;;;;27.20;16.05;;;;;;;-0.38;100.00;96942.25;4197750;28;20032;-72
2022/04/01 00:04:09;;;;;;;29.20;15.48;;;;;;;-0.40;100.00;96944.50;4198312;28;20022;-72
2022/04/01 00:06:10;;;;;;;28.25;15.05;;;;;;;-0.42;100.00;96933.19;4193865;28;20293;-72
2022/04/01 00:08:11;;;;;;;24.70;14.93;;;;;;;-0.40;100.00;96941.00;4194829;28;20192;-72
2022/04/01 00:10:11;;;;;;;22.15;12.60;;;;;;;-0.41;100.00;96928.56;4193123;28;20024;-72
2022/04/01 00:12:12;;;;;;;24.25;12.82;;;;;;;-0.43;100.00;96942.47;4198597;28;20089;-72
2022/04/01 00:14:13;;;;;;;27.63;13.38;;;;;;;-0.45;100.00;96938.53;4195021;28;20054;-72
2022/04/01 00:16:15;;;;;;;24.90;12.95;;;;;;;-0.44;100.00;96940.88;4195786;28;20498;-71
2022/04/01 00:18:15;;;;;;;23.38;12.77;;;;;;;-0.43;100.00;96941.69;4188859;28;20467;-72
2022/04/01 00:20:19;;;;;;;20.95;12.25;;;;;;;-0.43;100.00;96937.03;4198595;28;20032;-71
2022/04/01 00:22:19;;;;;;;28.48;12.75;;;;;;;-0.41;100.00;96928.56;4197291;28;20032;-71
2022/04/01 00:24:20;;;;;;;23.05;11.23;;;;;;;-0.42;100.00;96943.25;4195942;28;20047;-71
2022/04/01 00:26:20;;;;;;;21.45;11.63;;;;;;;-0.43;100.00;96941.69;4195078;28;20043;-71
2022/04/01 00:28:20;;;;;;;22.33;11.05;;;;;;;-0.43;100.00;96938.97;4190471;28;20308;-71
2022/04/01 00:30:23;;;;;;;23.90;11.35;;;;;;;-0.42;100.00;96945.97;4197275;28;20044;-71
2022/04/01 00:32:23;;;;;;;22.02;12.45;;;;;;;-0.41;100.00;96945.66;4197857;28;20048;-71
2022/04/01 00:34:23;;;;;;;21.90;13.20;;;;;;;-0.41;100.00;96948.38;4193723;28;20109;-71
2022/04/01 00:36:24;;;;;;;19.65;11.70;;;;;;;-0.42;100.00;96944.03;4194960;28;20487;-71
2022/04/01 00:38:25;;;;;;;24.42;11.32;;;;;;;-0.42;100.00;96944.03;4195063;28;20450;-72
2022/04/01 00:40:25;;;;;;;23.83;12.32;;;;;;;-0.46;100.00;96943.16;4194752;28;20075;-71
2022/04/01 00:42:26;;;;;;;23.27;12.80;;;;;;;-0.44;100.00;96937.38;4195689;28;20046;-71
2022/04/01 00:44:31;;;;;;;23.73;11.82;;;;;;;-0.47;100.00;96938.88;4198314;28;20075;-71
2022/04/01 00:46:32;;;;;;;23.60;12.95;;;;;;;-0.47;100.00;96947.03;4197141;28;20063;-71
2022/04/01 00:48:32;;;;;;;29.02;14.02;;;;;;;-0.50;100.00;96942.25;4193135;28;20075;-71
2022/04/01 00:50:33;;;;;;;22.83;13.20;;;;;;;-0.46;100.00;96942.38;4195370;28;20495;-71
2022/04/01 00:52:36;;;;;;;22.70;13.05;;;;;;;-0.45;100.00;96946.66;4197623;28;20080;-71
2022/04/01 00:54:36;;;;;;;;;;;;;;;-0.46;100.00;96951.31;4192595;28;20342;-71
2022/04/01 00:56:37;;;;;;;26.45;13.85;;;;;;;-0.49;100.00;96945.78;4195561;28;19920;-71
2022/04/01 00:58:38;;;;;;;24.08;13.18;;;;;;;-0.47;100.00;96946.22;4196317;28;20528;-71
2022/04/01 01:00:39;;;;;;;26.38;14.23;;;;;;;-0.51;100.00;96954.25;4191484;28;20396;-71
2022/04/01 01:02:39;;;;;;;22.75;12.80;;;;;;;-0.49;100.00;96943.88;4198519;28;20037;-71
2022/04/01 01:04:41;;;;;;;27.27;14.45;;;;;;;-0.48;100.00;96945.44;4195298;28;20045;-71
2022/04/01 01:06:46;;;;;;;29.30;15.68;;;;;;;-0.50;100.00;96952.34;4194265;28;20652;-71
2022/04/01 01:08:47;;;;;;;28.83;15.07;;;;;;;-0.53;100.00;96948.38;4193518;28;20052;-71
2022/04/01 01:10:48;;;;;;;27.57;14.83;;;;;;;-0.51;100.00;96943.38;4199314;28;20055;-71
2022/04/01 01:12:48;;;;;;;31.73;15.93;;;;;;;-0.51;100.00;96937.16;4194674;28;20263;-71
2022/04/01 01:14:49;;;;;;;33.75;17.58;;;;;;;-0.52;100.00;96941.81;4194815;28;20029;-71
2022/04/01 01:16:50;;;;;;;34.65;17.45;;;;;;;-0.55;100.00;96936.28;4193168;28;20040;-71
2022/04/01 01:19:07;;;;;;;33.47;17.65;;;;;;;-0.58;100.00;96946.72;4195666;28;20159;-71
2022/04/01 01:21:09;;;;;;;35.67;19.30;;;;;;;-0.65;100.00;96938.34;4195808;28;20449;-71
2022/04/01 01:23:12;;;;;;;;;;;;;;;-0.59;100.00;96947.03;4193063;28;20048;-71
2022/04/01 01:25:13;;;;;;;29.42;16.77;;;;;;;-0.59;100.00;96939.66;4191715;28;19923;-71
2022/04/01 01:27:13;;;;;;;32.95;17.98;;;;;;;-0.63;100.00;96938.00;4193479;28;20051;-71
2022/04/01 01:29:45;;;;;;;33.33;17.58;;;;;;;-0.63;100.00;96938.78;4192013;28;20044;-71
2022/04/01 01:31:46;;;;;;;34.72;16.83;;;;;;;-0.64;100.00;96931.78;4191146;28;20045;-71
2022/04/01 01:33:46;;;;;;;31.83;16.90;;;;;;;-0.62;100.00;96940.38;4196398;28;20136;-71
2022/04/01 01:35:47;;;;;;;29.50;16.95;;;;;;;-0.65;100.00;96938.34;4191985;28;20048;-71
2022/04/01 01:37:47;;;;;;;36.85;16.35;;;;;;;-0.68;100.00;96941.72;4189043;28;20047;-71
2022/04/01 01:39:48;;;;;;;29.25;17.15;;;;;;;-0.67;100.00;96935.16;4194512;28;20523;-71
2022/04/01 01:41:49;;;;;;;29.77;16.67;;;;;;;-0.68;100.00;96938.22;4193718;28;20044;-71
2022/04/01 01:43:50;;;;;;;31.27;16.52;;;;;;;-0.70;100.00;96938.56;4195758;28;20450;-71
2022/04/01 01:45:50;;;;;;;31.42;15.50;;;;;;;-0.66;100.00;96935.97;4189208;28;20143;-71
2022/04/01 01:47:50;;;;;;;29.67;16.25;;;;;;;-0.73;100.00;96947.41;4193846;28;20536;-71
2022/04/01 01:54:45;;;;;;;24.73;14.35;;;;;;;-0.69;100.00;96931.22;4193321;28;20396;-71
2022/04/01 01:56:46;;;;;;;24.05;13.80;;;;;;;-0.72;100.00;96938.13;4191463;28;20193;-71
2022/04/01 01:58:46;;;;;;;24.60;13.35;;;;;;;-0.70;100.00;96924.97;4200676;28;20059;-71
2022/04/01 02:00:46;;;;;;;24.45;13.40;;;;;;;-0.74;100.00;96936.88;4191590;28;20052;-71
2022/04/01 02:02:47;;;;;;;24.35;12.65;;;;;;;-0.77;100.00;96941.06;4191660;28;20049;-71
2022/04/01 02:04:49;;;;;;;19.50;11.43;;;;;;;-0.76;100.00;96939.13;4192772;28;20068;-71
2022/04/01 02:06:50;;;;;;;22.45;11.25;;;;;;;-0.79;100.00;96934.41;4193847;28;20048;-71
2022/04/01 02:08:51;;;;;;;19.98;10.20;;;;;;;-0.82;100.00;96932.38;4191481;28;20112;-71
2022/04/01 02:10:51;;;;;;;16.15;8.48;;;;;;;-0.77;100.00;96940.28;4195706;28;20068;-71
2022/04/01 02:12:52;;;;;;;16.45;8.88;;;;;;;-0.83;100.00;96944.34;4194921;28;20040;-71
2022/04/01 02:14:52;;;;;;;16.55;8.18;;;;;;;-0.87;100.00;96934.16;4192697;28;20543;-71
2022/04/01 02:16:53;;;;;;;14.35;7.93;;;;;;;-0.88;100.00;96940.75;4193988;28;20048;-71
2022/04/01 02:18:53;;;;;;;13.48;7.80;;;;;;;-0.87;100.00;96939.59;4193779;28;20496;-71
2022/04/01 02:20:54;;;;;;;15.90;7.95;;;;;;;-0.84;100.00;96943.56;4194025;28;20109;-71
2022/04/01 02:22:54;;;;;;;14.27;7.35;;;;;;;-0.87;100.00;96939.59;4190656;28;20040;-71
2022/04/01 02:24:54;;;;;;;16.45;7.80;;;;;;;-0.85;100.00;96941.97;4190926;28;20063;-71
2022/04/01 02:26:55;;;;;;;16.70;9.88;;;;;;;-0.86;100.00;96943.09;4194678;28;20083;-71
2022/04/01 02:28:59;;;;;;;16.70;8.30;;;;;;;-0.82;100.00;96954.88;4192259;28;20070;-71
2022/04/01 02:30:59;;;;;;;14.48;8.85;;;;;;;-0.87;100.00;96946.97;4195707;28;20036;-71
2022/04/01 02:33:00;;;;;;;14.48;8.07;;;;;;;-0.89;100.00;96944.59;4194079;28;20044;-71
2022/04/01 02:35:01;;;;;;;15.65;8.70;;;;;;;-0.85;100.00;96950.13;4195716;28;20048;-71
2022/04/01 02:37:04;;;;;;;15.20;8.63;;;;;;;-0.86;100.00;96946.63;4193188;28;20101;-71
2022/04/01 02:39:05;;;;;;;15.63;8.18;;;;;;;-0.80;100.00;96949.91;4190182;28;20035;-71
2022/04/01 02:41:08;;;;;;;14.95;8.35;;;;;;;-0.82;100.00;96946.75;4195583;28;20413;-71
2022/04/01 02:43:08;;;;;;;14.88;8.77;;;;;;;-0.87;100.00;96950.47;4192605;28;20424;-71
2022/04/01 02:45:09;;;;;;;16.77;8.90;;;;;;;-0.87;100.00;96939.59;4193576;28;20067;-71
2022/04/01 02:47:09;;;;;;;18.35;8.65;;;;;;;-0.86;100.00;96941.19;4192793;28;20048;-71
2022/04/01 02:49:13;;;;;;;16.70;8.35;;;;;;;-0.82;100.00;96945.94;4194759;28;20706;-71
2022/04/01 02:51:13;;;;;;;15.43;8.88;;;;;;;-0.81;100.00;96942.88;4194894;28;20067;-71
2022/04/01 02:53:17;;;;;;;16.60;8.98;;;;;;;-0.83;100.00;96944.34;4193504;28;20048;-71
2022/04/01 02:55:18;;;;;;;15.85;7.85;;;;;;;-0.86;100.00;96946.63;4194230;28;20815;-71
2022/04/01 02:57:20;;;;;;;16.60;8.32;;;;;;;-0.87;100.00;96945.03;4196061;28;20028;-71
2022/04/01 02:59:21;;;;;;;;;;;;;;;-0.88;100.00;96945.38;4189181;28;20041;-71
2022/04/01 03:01:21;;;;;;;15.95;7.25;;;;;;;-0.90;100.00;96944.94;4194593;28;20814;-71
2022/04/01 03:03:21;;;;;;;11.60;7.10;;;;;;;-0.86;100.00;96959.41;4195783;28;20429;-71
2022/04/01 03:05:22;;;;;;;13.95;8.07;;;;;;;-0.84;100.00;96954.41;4197352;28;20135;-71
2022/04/01 03:07:22;;;;;;;14.15;8.30;;;;;;;-0.86;100.00;96956.69;4196054;28;20044;-71
2022/04/01 03:09:22;;;;;;;14.35;7.75;;;;;;;-0.87;100.00;96961.31;4197764;28;20036;-71
2022/04/01 03:11:23;;;;;;;15.55;7.47;;;;;;;-0.85;100.00;96952.84;4192027;28;20059;-71
2022/04/01 03:13:23;;;;;;;15.20;8.27;;;;;;;-0.82;100.00;96963.03;4198188;28;20110;-71
2022/04/01 03:15:24;;;;;;;12.13;6.45;;;;;;;-0.81;100.00;96948.31;4194455;28;20468;-71
2022/04/01 03:17:24;;;;;;;16.85;7.95;;;;;;;-0.86;100.00;96957.47;4193767;28;20036;-71
2022/04/01 03:19:25;;;;;;;12.45;6.75;;;;;;;-0.82;100.00;96964.97;4197454;28;20519;-71
2022/04/01 03:21:26;;;;;;;16.13;7.88;;;;;;;-0.86;100.00;96962.91;4196200;28;20047;-71
2022/04/01 03:23:27;;;;;;;12.20;7.07;;;;;;;-0.86;100.00;96962.91;4197331;28;20055;-71
2022/04/01 03:25:32;;;;;;;15.73;7.40;;;;;;;-0.86;100.00;96960.19;4195256;28;20434;-71
2022/04/01 03:27:33;;;;;;;12.13;7.10;;;;;;;-0.85;100.00;96958.25;4196803;28;20111;-71
2022/04/01 03:29:34;;;;;;;10.95;6.32;;;;;;;-0.86;100.00;96959.41;4195838;28;20044;-72
2022/04/01 03:31:35;;;;;;;15.23;6.78;;;;;;;-0.85;100.00;96958.25;4197661;28;20456;-72
2022/04/01 03:33:37;;;;;;;12.45;6.85;;;;;;;-0.86;100.00;96962.91;4189766;28;20238;-72
2022/04/01 03:35:37;;;;;;;11.88;6.47;;;;;;;-0.84;100.00;96965.28;4197171;28;20476;-72
2022/04/01 03:37:37;;;;;;;16.05;7.60;;;;;;;-0.82;100.00;96965.75;4195569;28;20041;-72
2022/04/01 03:39:38;;;;;;;11.18;6.75;;;;;;;-0.80;100.00;96963.47;4194718;28;20058;-72
2022/04/01 03:41:39;;;;;;;13.02;6.95;;;;;;;-0.79;100.00;96970.50;4197656;28;20060;-72
2022/04/01 03:43:40;;;;;;;10.40;6.00;;;;;;;-0.78;100.00;96971.28;4197605;28;20075;-72
2022/04/01 03:45:48;;;;;;;10.38;6.15;;;;;;;-0.74;100.00;96973.00;4198027;28;20064;-72
2022/04/01 03:48:00;;;;;;;11.18;6.10;;;;;;;-0.76;100.00;96967.09;4193337;28;20378;-72
2022/04/01 03:50:03;;;;;;;13.93;6.15;;;;;;;-0.75;100.00;96970.59;4195682;28;20501;-71
2022/04/01 03:52:07;;;;;;;;;;;;;;;-0.76;100.00;96980.66;4192093;28;20380;-72
2022/04/01 03:54:07;;;;;;;14.80;6.75;;;;;;;-0.78;100.00;96969.34;4193650;28;19916;-72
2022/04/01 03:56:07;;;;;;;19.63;7.47;;;;;;;-0.76;100.00;96980.66;4194831;28;20028;-72
2022/04/01 03:58:12;;;;;;;13.02;6.82;;;;;;;-0.78;100.00;96980.22;4195446;28;20358;-72
2022/04/01 04:00:14;;;;;;;15.40;6.80;;;;;;;-0.75;100.00;96981.44;4194424;28;20024;-72
2022/04/01 04:02:14;;;;;;;16.15;7.47;;;;;;;-0.79;100.00;96973.22;4198770;28;20034;-72
2022/04/01 04:04:15;;;;;;;17.45;8.10;;;;;;;-0.77;100.00;96975.56;4195198;28;20504;-71
2022/04/01 04:06:16;;;;;;;20.73;8.68;;;;;;;-0.74;100.00;96977.63;4195451;28;20098;-71
2022/04/01 04:08:19;;;;;;;11.65;6.30;;;;;;;-0.76;100.00;96982.59;4197990;28;20034;-71
2022/04/01 04:10:21;;;;;;;11.77;5.97;;;;;;;-0.75;100.00;96986.88;4197331;28;20110;-71
2022/04/01 04:12:22;;;;;;;12.63;6.43;;;;;;;-0.76;100.00;96988.03;4195939;28;20048;-71
2022/04/01 04:14:26;;;;;;;11.77;6.22;;;;;;;-0.75;98.51;96989.59;4194712;28;20480;-71
2022/04/01 04:16:31;;;;;;;12.55;5.85;;;;;;;-0.75;98.10;96993.09;4192305;28;20048;-72
2022/04/01 04:18:40;;;;;;;8.40;5.75;;;;;;;-0.71;97.12;96995.94;4197112;28;20086;-72
2022/04/01 04:21:06;;;;;;;11.30;5.80;;;;;;;-0.72;96.85;96997.09;4202190;28;20520;-71
2022/04/01 04:23:10;;;;;;;13.85;5.22;;;;;;;-0.72;95.61;96995.16;4196984;28;20372;-71
2022/04/01 04:25:14;;;;;;;11.32;5.88;;;;;;;-0.78;96.22;97001.16;4193849;28;20097;-71
2022/04/01 04:27:17;;;;;;;9.02;5.45;;;;;;;-0.81;95.36;97004.56;4194371;28;20537;-71
2022/04/01 04:29:18;;;;;;;12.55;5.93;;;;;;;-0.79;96.04;97002.28;4196642;28;20044;-72
2022/04/01 04:31:29;;;;;;;10.77;5.40;;;;;;;-0.83;96.41;96999.44;4197476;28;20606;-72
2022/04/01 04:33:33;;;;;;;9.15;5.05;;;;;;;-0.83;95.58;96995.94;4198984;28;20072;-72
2022/04/01 04:35:38;;;;;;;12.98;5.40;;;;;;;-0.86;96.07;97000.13;4197351;28;20439;-72
2022/04/01 04:37:45;;;;;;;11.27;5.45;;;;;;;-0.84;96.47;97003.28;4196524;28;20067;-72
2022/04/01 04:39:48;;;;;;;8.45;5.57;;;;;;;-0.87;93.89;96998.56;4196099;28;20672;-72
2022/04/01 04:41:49;;;;;;;13.07;6.07;;;;;;;-0.85;93.88;97001.72;4198694;28;20044;-72
2022/04/01 04:43:50;;;;;;;10.88;5.05;;;;;;;-0.87;95.08;97009.41;4196457;28;20535;-72
2022/04/01 04:45:58;;;;;;;10.98;5.63;;;;;;;-0.87;94.32;97006.69;4196380;28;20094;-72
2022/04/01 04:47:58;;;;;;;12.13;6.55;;;;;;;-0.85;92.22;97007.16;4122792;28;20055;-72
2022/04/01 04:50:02;;;;;;;8.52;4.88;;;;;;;-0.82;92.53;97013.84;4204021;28;20147;-72
2022/04/01 04:52:03;;;;;;;9.82;5.25;;;;;;;-0.79;93.07;97013.16;4196882;28;20530;-72
2022/04/01 04:54:03;;;;;;;14.15;5.25;;;;;;;-0.81;93.16;97010.78;4191597;28;20028;-72
2022/04/01 04:56:04;;;;;;;8.93;4.82;;;;;;;-0.86;93.96;96995.50;4192807;28;20020;-72
2022/04/01 04:58:08;;;;;;;7.65;4.75;;;;;;;-0.84;92.93;97014.16;4193619;28;20115;-72
2022/04/01 05:00:10;;;;;;;12.10;5.45;;;;;;;-0.85;92.11;97012.56;4188825;28;20364;-72
2022/04/01 05:02:21;;;;;;;9.80;5.45;;;;;;;-0.83;92.40;97017.66;4196164;28;20028;-72
2022/04/01 05:04:42;;;;;;;10.35;5.20;;;;;;;-0.82;91.75;97022.78;4195037;28;20439;-72
2022/04/01 05:06:51;;;;;;;8.90;5.07;;;;;;;-0.83;92.61;97017.66;4194084;28;20154;-72
2022/04/01 05:09:06;;;;;;;8.77;4.40;;;;;;;-0.86;93.31;97030.00;4196260;28;20052;-72
2022/04/01 05:11:44;;;;;;;11.20;4.75;;;;;;;-0.81;92.50;97024.34;4193114;28;20045;-72
2022/04/01 05:13:59;;;;;;;9.15;5.07;;;;;;;-0.85;92.44;97023.44;4196608;28;20044;-72
2022/04/01 05:16:05;;;;;;;10.25;5.20;;;;;;;-0.86;90.97;97035.44;4194394;28;20037;-72
2022/04/01 05:18:21;;;;;;;7.82;4.95;;;;;;;-0.81;90.49;97045.28;4195174;28;20490;-72
2022/04/01 05:20:27;;;;;;;8.65;4.50;;;;;;;-0.85;90.05;97034.28;4195437;28;20540;-72
2022/04/01 05:22:42;;;;;;;10.25;5.40;;;;;;;-0.81;89.71;97051.50;4194435;28;20288;-72
2022/04/01 05:24:52;;;;;;;12.20;5.70;;;;;;;-0.86;89.31;97049.81;4192471;28;20208;-72
2022/04/01 05:26:55;;;;;;;9.80;5.10;;;;;;;-0.86;90.01;97062.59;4194701;28;20047;-72
2022/04/01 05:29:03;;;;;;;6.65;4.35;;;;;;;-0.84;88.07;97054.88;4191805;28;20044;-72
2022/04/01 05:31:18;;;;;;;9.45;4.65;;;;;;;-0.89;87.90;97058.63;4192879;28;20048;-72
2022/04/01 05:33:25;;;;;;;11.68;5.00;;;;;;;-0.91;87.69;97060.09;4189184;28;20036;-71
2022/04/01 05:35:51;;;;;;;13.13;5.10;;;;;;;-0.90;89.04;97064.41;4187980;28;20045;-71
2022/04/01 05:37:53;;;;;;;8.43;4.60;;;;;;;-0.92;87.67;97067.44;4192279;28;20451;-71
2022/04/01 05:39:54;;;;;;;10.18;5.07;;;;;;;-1.00;88.73;97070.25;4194176;28;20051;-71
2022/04/01 05:41:56;;;;;;;8.25;4.60;;;;;;;-1.02;88.88;97078.72;4191461;28;20051;-71
2022/04/01 05:43:57;;;;;;;7.45;4.63;;;;;;;-1.08;90.07;97095.56;4196544;28;20086;-71
2022/04/01 05:45:58;;;;;;;10.23;4.60;;;;;;;-1.14;92.08;97095.00;4193131;28;20115;-71
2022/04/01 05:48:00;;;;;;;12.38;5.50;;;;;;;-1.22;92.91;97104.03;4197017;28;20087;-71
2022/04/01 05:50:01;;;;;;;8.98;5.20;;;;;;;-1.26;92.82;97101.19;4195003;28;20040;-72
2022/04/01 05:52:01;;;;;;;7.97;4.85;;;;;;;-1.33;93.12;97110.97;4194313;28;20127;-72
2022/04/01 05:54:04;;;;;;;10.55;6.47;;;;;;;-1.34;93.82;97104.75;4185539;28;20036;-72
2022/04/01 05:56:07;;;;;;;9.90;5.80;;;;;;;-1.45;95.44;97107.09;4192351;28;20032;-72
2022/04/01 05:58:07;;;;;;;9.57;4.40;;;;;;;-1.49;96.76;97113.50;4193121;28;20132;-71
2022/04/01 06:00:12;;;;;;;10.85;5.70;;;;;;;-1.55;98.61;97110.22;4191565;28;20078;-72
2022/04/01 06:02:31;;;;;;;9.65;4.85;;;;;;;-1.58;98.66;97110.88;4192172;28;20115;-72
2022/04/01 06:04:34;;;;;;;9.75;5.50;;;;;;;-1.65;100.00;97120.69;4194116;28;20060;-71
2022/04/01 06:06:40;;;;;;;11.43;5.40;;;;;;;-1.71;100.00;97120.88;4188410;28;20041;-71
2022/04/01 06:09:16;;;;;;;11.05;6.07;;;;;;;-1.78;100.00;97128.75;4190473;28;20539;-71
2022/04/01 06:11:28;;;;;;;11.68;5.97;;;;;;;-1.81;100.00;97126.72;4190614;28;20183;-71
2022/04/01 06:13:38;;;;;;;;;;;;;;;-1.76;100.00;97136.56;4198959;28;20047;-71
2022/04/01 06:15:50;;;;;;;13.23;6.35;;;;;;;-1.77;100.00;97140.38;4194519;28;19916;-71
2022/04/01 06:18:22;;;;;;;10.93;6.40;;;;;;;-1.86;100.00;97148.59;4197497;28;20033;-71
2022/04/01 06:20:26;;;;;;;11.60;6.70;;;;;;;-1.91;100.00;97140.63;4194257;28;20215;-71
2022/04/01 06:22:30;;;;;;;15.02;7.68;;;;;;;-1.93;100.00;97153.72;4195268;28;20078;-72
2022/04/01 06:24:51;;;;;;;16.95;9.00;;;;;;;-1.95;100.00;97145.13;4194523;28;20040;-72
2022/04/01 06:26:57;;;;;;;14.93;9.30;;;;;;;-2.08;100.00;97155.09;4192884;28;20044;-71
2022/04/01 06:29:17;;;;;;;17.52;7.75;;;;;;;-2.02;100.00;97159.22;4194563;28;20036;-71
2022/04/01 06:31:22;;;;;;;14.15;7.82;;;;;;;-1.98;100.00;97162.88;4192377;28;20063;-71
2022/04/01 06:33:35;;;;;;;18.65;9.35;;;;;;;-2.03;100.00;97160.34;4199746;28;20109;-71
2022/04/01 06:35:47;;;;;;;20.40;10.35;;;;;;;-2.03;100.00;97159.53;4195273;28;20526;-71
2022/04/01 06:37:59;;;;;;;21.17;10.77;;;;;;;-2.06;100.00;97163.72;4196995;28;20135;-71
2022/04/01 06:40:06;;;;;;;19.85;11.23;;;;;;;-2.04;100.00;97164.16;4198576;28;20051;-71
2022/04/01 06:42:12;;;;;;;21.67;10.57;;;;;;;-2.04;100.00;97169.59;4192797;28;20187;-72
2022/04/01 06:44:12;;;;;;;20.65;10.25;;;;;;;-2.01;100.00;97168.91;4196701;28;20388;-72
2022/04/01 06:46:12;;;;;;;14.48;7.93;;;;;;;-1.97;100.00;97169.06;4197033;28;20035;-72
2022/04/01 06:48:13;;;;;;;13.32;8.13;;;;;;;-1.94;100.00;97173.03;4196084;28;20071;-72
2022/04/01 06:50:16;;;;;;;14.25;9.18;;;;;;;-1.99;100.00;97176.72;4196386;28;20164;-72
2022/04/01 06:52:16;;;;;;;13.52;8.10;;;;;;;-2.05;100.00;97173.44;4203563;28;20077;-71
2022/04/01 06:54:17;;;;;;;14.93;8.90;;;;;;;-2.04;100.00;97172.31;4193234;28;20456;-71
2022/04/01 06:56:17;;;;;;;16.25;9.07;;;;;;;-2.03;100.00;97175.81;4194017;28;20465;-71
2022/04/01 06:58:17;;;;;;;12.02;8.27;;;;;;;-2.05;100.00;97170.72;4197031;28;20024;-72
2022/04/01 07:00:19;;;;;;;14.68;8.20;;;;;;;-2.01;100.00;97168.13;4196632;28;20070;-71
2022/04/01 07:02:19;;;;;;;15.77;8.43;;;;;;;-1.98;100.00;97173.72;4198294;28;20029;-72
2022/04/01 07:04:19;;;;;;;18.88;8.50;;;;;;;-1.91;100.00;97181.31;4196349;28;20027;-72
2022/04/01 07:06:20;;;;;;;12.30;7.28;;;;;;;-1.90;100.00;97173.97;4195548;28;20294;-71
2022/04/01 07:08:21;;;;;;;12.63;7.65;;;;;;;-1.94;100.00;97187.38;4193157;28;20528;-71
2022/04/01 07:10:21;;;;;;;14.57;9.20;;;;;;;-1.98;100.00;97179.13;4193458;28;20044;-71
2022/04/01 07:12:23;;;;;;;14.40;8.25;;;;;;;-1.95;100.00;97190.44;4197226;28;20059;-71
2022/04/01 07:14:24;;;;;;;18.97;9.93;;;;;;;-1.98;100.00;97187.25;4196072;28;20101;-71
2022/04/01 07:16:24;;;;;;;18.88;10.15;;;;;;;-1.96;100.00;97191.56;4193877;28;20413;-71
2022/04/01 07:18:24;;;;;;;18.70;10.68;;;;;;;-1.93;100.00;97180.84;4197388;28;20044;-71
2022/04/01 07:20:25;;;;;;;15.98;10.10;;;;;;;-1.93;100.00;97186.25;4196990;28;20044;-71
2022/04/01 07:22:26;;;;;;;14.57;8.45;;;;;;;-1.94;100.00;97195.53;4193702;28;20387;-71
2022/04/01 07:24:26;;;;;;;11.40;7.15;;;;;;;-1.97;100.00;97193.47;4199571;28;20102;-71
2022/04/01 07:26:26;;;;;;;14.48;8.75;;;;;;;-2.03;100.00;97194.78;4203165;28;20156;-71
2022/04/01 07:28:27;;;;;;;14.07;8.45;;;;;;;-2.09;100.00;97193.38;4199039;28;20040;-71
2022/04/01 07:30:27;;;;;;;12.25;7.35;;;;;;;-2.05;100.00;97199.75;4197121;28;20464;-71
2022/04/01 07:32:32;;;;;;;12.77;7.90;;;;;;;-2.03;100.00;97201.00;4195880;28;20067;-71
2022/04/01 07:34:36;;;;;;;13.00;7.55;;;;;;;-2.02;100.00;97193.66;4197727;28;20353;-71
2022/04/01 07:36:37;;;;;;;14.90;8.40;;;;;;;-2.09;100.00;97194.16;4195561;28;20126;-71
2022/04/01 07:38:39;;;;;;;13.15;6.93;;;;;;;-2.08;100.00;97198.44;4196024;28;20499;-71
2022/04/01 07:40:40;;;;;;;11.98;7.65;;;;;;;-2.02;100.00;97193.66;4198777;28;20420;-71
2022/04/01 07:42:40;;;;;;;11.10;7.20;;;;;;;-2.10;100.00;97198.00;4199288;28;20046;-71
2022/04/01 07:44:42;;;;;;;10.48;7.30;;;;;;;-2.06;100.00;97203.56;4203388;28;20206;-71
2022/04/01 07:46:42;;;;;;;10.15;7.30;;;;;;;-2.11;100.00;97206.44;4198911;28;20090;-71
2022/04/01 07:48:43;;;;;;;10.73;7.05;;;;;;;-2.06;100.00;97203.56;4197568;28;20131;-71
2022/04/01 07:50:43;;;;;;;11.73;7.30;;;;;;;-2.05;100.00;97202.44;4195647;28;20058;-71
2022/04/01 07:52:44;;;;;;;12.38;7.30;;;;;;;-2.03;100.00;97206.41;4195997;28;20257;-71
2022/04/01 07:54:45;;;;;;;20.17;13.30;;;;;;;-1.93;100.00;97210.66;4196562;28;20389;-71
2022/04/01 07:56:45;;;;;;;10.52;7.22;;;;;;;-1.90;100.00;97212.72;4194354;28;20423;-71
2022/04/01 07:58:45;;;;;;;10.88;7.05;;;;;;;-1.96;100.00;97227.59;4197843;28;20048;-71
2022/04/01 08:00:46;;;;;;;10.27;7.28;;;;;;;-2.01;100.00;97223.13;4198168;28;20043;-71
2022/04/01 08:02:47;;;;;;;12.25;7.30;;;;;;;-2.05;100.00;97218.72;4198197;28;20064;-71
2022/04/01 08:04:48;;;;;;;12.10;8.45;;;;;;;-2.01;100.00;97217.72;4197132;28;20079;-71
2022/04/01 08:06:48;;;;;;;13.27;8.40;;;;;;;-1.91;100.00;97215.75;4196625;28;20051;-71
2022/04/01 08:08:48;;;;;;;12.30;8.32;;;;;;;-1.88;100.00;97217.81;4190846;28;20055;-71
2022/04/01 08:10:49;;;;;;;11.65;7.72;;;;;;;-1.89;100.00;97217.03;4189997;28;20211;-71
2022/04/01 08:12:49;;;;;;;11.23;7.82;;;;;;;-1.71;100.00;97221.22;4196632;28;20036;-71
2022/04/01 08:14:49;;;;;;;14.13;7.25;;;;;;;-1.76;100.00;97226.03;4193896;28;20047;-71
2022/04/01 08:16:50;;;;;;;12.73;7.65;;;;;;;-1.68;100.00;97232.53;4194862;28;20059;-71
2022/04/01 08:18:50;;;;;;;12.15;7.38;;;;;;;-1.70;100.00;97227.44;4198077;28;20040;-71
2022/04/01 08:20:51;;;;;;;17.08;8.18;;;;;;;-1.67;99.99;97234.13;4195321;28;20508;-71
2022/04/01 08:22:51;;;;;;;10.48;7.22;;;;;;;-1.72;99.85;97237.81;4196105;28;20041;-71
2022/04/01 08:24:52;;;;;;;14.25;9.25;;;;;;;-1.56;100.00;97238.06;4198084;28;20423;-71
2022/04/01 08:26:52;;;;;;;16.90;8.65;;;;;;;-1.52;100.00;97236.25;4196438;28;20040;-71
2022/04/01 08:28:52;;;;;;;12.85;7.78;;;;;;;-1.36;98.59;97245.41;4196291;28;20227;-71
2022/04/01 08:30:53;;;;;;;12.80;8.10;;;;;;;-1.26;98.13;97253.16;4192622;28;20450;-71
2022/04/01 08:32:53;;;;;;;12.68;7.40;;;;;;;-1.18;97.13;97246.84;4197212;28;20379;-70
2022/04/01 08:34:53;;;;;;;13.20;8.20;;;;;;;-1.29;97.96;97242.97;4196897;28;20068;-71
2022/04/01 08:36:54;;;;;;;12.02;7.80;;;;;;;-1.24;97.15;97256.34;4190317;28;20049;-71
2022/04/01 08:38:54;;;;;;;11.98;7.70;;;;;;;-1.29;97.19;97253.03;4196782;28;20161;-71
2022/04/01 08:40:55;;;;;;;15.82;8.93;;;;;;;-1.19;97.24;97249.91;4194000;28;20060;-71
2022/04/01 08:42:56;;;;;;;14.27;9.32;;;;;;;-1.14;97.15;97258.66;4196934;28;20483;-71
2022/04/01 08:44:56;;;;;;;11.73;7.88;;;;;;;-1.16;97.57;97255.47;4197715;28;20040;-71
2022/04/01 08:46:57;;;;;;;11.85;8.07;;;;;;;-1.05;96.59;97264.00;4194571;28;20140;-71
2022/04/01 08:48:57;;;;;;;12.93;7.55;;;;;;;-1.01;96.70;97264.13;4189471;28;20465;-71
2022/04/01 08:50:59;;;;;;;10.75;7.15;;;;;;;-1.17;93.31;97282.94;4196581;28;20553;-71
2022/04/01 08:53:00;;;;;;;12.50;8.25;;;;;;;-1.39;95.37;97270.50;4196414;28;20396;-71
2022/04/01 08:55:09;;;;;;;12.50;8.35;;;;;;;-1.46;96.79;97270.22;4194413;28;20040;-71
2022/04/01 08:57:09;;;;;;;13.95;8.20;;;;;;;-1.46;97.49;97281.84;4192659;28;20055;-71
2022/04/01 08:59:10;;;;;;;10.80;7.97;;;;;;;-1.59;97.01;97269.31;4196392;28;20032;-71
2022/04/01 09:01:11;;;;;;;11.20;8.10;;;;;;;-1.47;97.95;97272.13;4195846;28;20055;-71
2022/04/01 09:03:13;;;;;;;16.05;8.38;;;;;;;-1.49;96.34;97279.81;4196517;28;20036;-71
2022/04/01 09:05:13;;;;;;;12.70;7.78;;;;;;;-1.51;97.30;97279.31;4191452;28;20064;-71
2022/04/01 09:07:16;;;;;;;12.18;8.00;;;;;;;-1.55;96.88;97278.41;4195490;28;20055;-71
2022/04/01 09:09:26;;;;;;;14.68;7.57;;;;;;;-1.35;97.37;97287.69;4193820;28;20068;-71
2022/04/01 09:11:27;;;;;;;14.38;9.27;;;;;;;-1.27;97.79;97292.25;4194855;28;20044;-71
2022/04/01 09:13:30;;;;;;;12.77;7.25;;;;;;;-1.40;95.31;97285.19;4190558;28;20044;-71
2022/04/01 09:15:42;;;;;;;13.20;8.15;;;;;;;-1.35;96.04;97298.53;4192274;28;20056;-71
2022/04/01 09:17:45;;;;;;;12.65;8.18;;;;;;;-1.40;97.58;97296.03;4197414;28;20414;-71
2022/04/01 09:19:46;;;;;;;;;;;;;;;-1.32;96.56;97289.75;4198127;28;20032;-71
2022/04/01 09:21:49;;;;;;;11.27;7.40;;;;;;;-1.24;96.72;97290.81;4194336;28;19912;-71
2022/04/01 09:23:49;;;;;;;10.63;7.03;;;;;;;-1.33;94.51;97293.56;4195928;28;20070;-71
2022/04/01 09:25:51;;;;;;;10.82;7.72;;;;;;;-1.31;94.47;97298.69;4196767;28;20051;-71
2022/04/01 09:27:53;;;;;;;10.43;7.10;;;;;;;-1.25;95.29;97292.72;4192030;28;20505;-71
2022/04/01 09:29:53;;;;;;;10.25;7.95;;;;;;;-1.30;95.17;97305.72;4195023;28;20048;-71
2022/04/01 09:31:54;;;;;;;15.15;8.32;;;;;;;-1.18;94.30;97306.56;4194211;28;20587;-71